createdAt,value
2023-03-14T00:01:11.936Z,4.53
2023-03-14T00:03:39.426Z,4.07
2023-03-14T00:06:08.517Z,3.95
2023-03-14T00:08:36.301Z,3.47
2023-03-14T00:11:08.552Z,3.00
2023-03-14T00:13:37.746Z,3.22
2023-03-14T00:16:06.900Z,4.60
2023-03-14T00:18:35.564Z,6.78
2023-03-14T00:21:04.804Z,7.10
2023-03-14T00:23:33.527Z,7.47
2023-03-14T00:26:01.657Z,7.30
2023-03-14T00:28:29.318Z,5.55
2023-03-14T00:30:58.266Z,4.70
2023-03-14T00:33:26.211Z,3.70
2023-03-14T00:35:57.580Z,2.97
2023-03-14T00:38:25.476Z,6.03
2023-03-14T00:40:53.007Z,4.63
2023-03-14T00:43:22.485Z,4.57
2023-03-14T00:45:50.134Z,4.90
2023-03-14T00:48:19.330Z,4.35
2023-03-14T00:50:46.954Z,4.13
2023-03-14T00:53:14.759Z,4.30
2023-03-14T00:55:44.036Z,4.68
2023-03-14T00:58:11.886Z,3.70
2023-03-14T01:00:39.921Z,8.07
2023-03-14T01:03:07.674Z,11.80
2023-03-14T01:05:36.763Z,15.57
2023-03-14T01:08:04.917Z,11.70
2023-03-14T01:10:33.004Z,10.95
2023-03-14T01:13:00.488Z,9.20
2023-03-14T01:15:28.112Z,12.70
2023-03-14T01:17:55.718Z,7.05
2023-03-14T01:20:23.258Z,6.90
2023-03-14T01:22:52.081Z,8.25
2023-03-14T01:25:20.256Z,11.45
2023-03-14T01:27:47.953Z,27.00
2023-03-14T01:30:16.066Z,6.13
2023-03-14T01:32:43.683Z,7.57
2023-03-14T01:35:11.222Z,11.43
2023-03-14T01:37:38.659Z,5.38
2023-03-14T01:40:08.635Z,5.82
2023-03-14T01:42:36.134Z,4.20
2023-03-14T01:45:04.316Z,4.40
2023-03-14T01:47:31.799Z,4.18
2023-03-14T01:50:03.439Z,4.30
2023-03-14T01:52:36.075Z,4.07
2023-03-14T01:55:08.305Z,4.07
2023-03-14T01:57:39.548Z,5.60
2023-03-14T02:00:17.585Z,4.65
2023-03-14T02:02:47.627Z,4.85
2023-03-14T02:05:19.278Z,4.68
2023-03-14T02:07:51.410Z,4.88
2023-03-14T02:10:22.858Z,5.13
2023-03-14T02:12:51.426Z,7.50
2023-03-14T02:15:19.196Z,7.55
2023-03-14T02:17:47.616Z,8.27
2023-03-14T02:20:29.966Z,9.15
2023-03-14T02:22:57.959Z,9.95
2023-03-14T02:25:37.677Z,4.03
2023-03-14T02:28:06.629Z,3.00
2023-03-14T02:30:36.071Z,3.25
2023-03-14T02:33:06.925Z,3.13
2023-03-14T02:35:37.348Z,3.78
2023-03-14T02:38:12.370Z,3.97
2023-03-14T02:40:39.948Z,3.45
2023-03-14T02:43:08.790Z,3.95
2023-03-14T02:45:40.187Z,4.53
2023-03-14T02:48:12.737Z,5.68
2023-03-14T02:50:40.842Z,4.55
2023-03-14T02:53:08.489Z,3.75
2023-03-14T02:55:36.036Z,4.13
2023-03-14T02:58:03.520Z,3.83
2023-03-14T03:00:32.587Z,3.78
2023-03-14T03:03:00.102Z,4.22
2023-03-14T03:05:27.619Z,4.78
2023-03-14T03:07:55.096Z,3.67
2023-03-14T03:10:22.578Z,4.03
2023-03-14T03:12:50.053Z,4.55
2023-03-14T03:15:17.592Z,5.40
2023-03-14T03:17:46.493Z,5.53
2023-03-14T03:20:14.019Z,6.47
2023-03-14T03:22:41.698Z,5.70
2023-03-14T03:25:10.491Z,9.00
2023-03-14T03:27:39.036Z,7.88
2023-03-14T03:30:08.123Z,8.32
2023-03-14T03:32:35.635Z,8.48
2023-03-14T03:35:06.586Z,7.80
2023-03-14T03:37:34.942Z,8.25
2023-03-14T03:40:05.194Z,6.80
2023-03-14T03:42:32.661Z,7.60
2023-03-14T03:45:00.732Z,6.78
2023-03-14T03:47:28.744Z,8.15
2023-03-14T03:49:56.209Z,6.45
2023-03-14T03:52:24.993Z,7.07
2023-03-14T03:54:52.473Z,7.72
2023-03-14T03:57:19.963Z,7.38
2023-03-14T03:59:47.457Z,5.53
2023-03-14T04:02:14.963Z,5.97
2023-03-14T04:04:42.531Z,6.47
2023-03-14T04:07:10.980Z,6.10
2023-03-14T04:09:40.644Z,6.38
2023-03-14T04:12:08.237Z,6.43
2023-03-14T04:14:35.742Z,6.18
2023-03-14T04:17:03.234Z,5.63
2023-03-14T04:19:30.688Z,6.50
2023-03-14T04:21:58.150Z,5.60
2023-03-14T04:24:25.758Z,5.32
2023-03-14T04:26:54.561Z,7.20
2023-03-14T04:29:22.200Z,6.82
2023-03-14T04:31:49.698Z,6.53
2023-03-14T04:34:17.189Z,6.13
2023-03-14T04:36:44.698Z,6.70
2023-03-14T04:39:12.151Z,5.85
2023-03-14T04:41:39.612Z,5.25
2023-03-14T04:44:08.459Z,5.47
2023-03-14T04:46:35.982Z,6.78
2023-03-14T04:49:03.487Z,5.57
2023-03-14T04:51:30.989Z,4.85
2023-03-14T04:53:58.498Z,4.88
2023-03-14T04:56:26.419Z,5.10
2023-03-14T04:58:53.881Z,6.68
2023-03-14T05:01:22.791Z,5.68
2023-03-14T05:03:50.384Z,5.65
2023-03-14T05:06:17.903Z,6.00
2023-03-14T05:08:45.899Z,5.07
2023-03-14T05:11:13.723Z,6.07
2023-03-14T05:13:41.297Z,4.53
2023-03-14T05:16:11.275Z,5.40
2023-03-14T05:18:40.127Z,5.80
2023-03-14T05:21:08.082Z,5.55
2023-03-14T05:23:35.600Z,5.30
2023-03-14T05:26:03.077Z,5.30
2023-03-14T05:28:30.569Z,4.80
2023-03-14T05:30:58.053Z,5.40
2023-03-14T05:33:25.642Z,4.85
2023-03-14T05:35:54.498Z,5.35
2023-03-14T05:38:23.059Z,4.70
2023-03-14T05:40:50.602Z,4.93
2023-03-14T05:43:18.162Z,5.87
2023-03-14T05:45:45.820Z,6.50
2023-03-14T05:48:13.335Z,6.47
2023-03-14T05:50:40.818Z,5.60
2023-03-14T05:53:09.675Z,5.07
2023-03-14T05:55:37.184Z,5.00
2023-03-14T05:58:04.681Z,5.28
2023-03-14T06:00:32.179Z,5.13
2023-03-14T06:02:59.720Z,5.22
2023-03-14T06:05:27.195Z,3.97
2023-03-14T06:07:54.671Z,4.13
2023-03-14T06:10:23.479Z,4.33
2023-03-14T06:12:51.024Z,4.35
2023-03-14T06:15:18.472Z,4.22
2023-03-14T06:17:45.946Z,4.20
2023-03-14T06:20:14.379Z,3.40
2023-03-14T06:22:42.941Z,3.50
2023-03-14T06:25:11.050Z,3.88
2023-03-14T06:27:39.888Z,7.30
2023-03-14T06:30:08.833Z,5.65
2023-03-14T06:32:36.345Z,4.93
2023-03-14T06:35:04.097Z,3.22
2023-03-14T06:37:32.083Z,3.42
2023-03-14T06:39:59.540Z,2.90
2023-03-14T06:42:26.981Z,3.42
2023-03-14T06:44:55.786Z,3.50
2023-03-14T06:47:23.256Z,3.63
2023-03-14T06:49:51.680Z,3.03
2023-03-14T06:52:19.172Z,3.70
2023-03-14T06:54:46.624Z,3.47
2023-03-14T06:57:14.100Z,3.17
2023-03-14T06:59:41.555Z,2.67
2023-03-14T07:02:12.496Z,2.97
2023-03-14T07:04:40.093Z,2.50
2023-03-14T07:07:07.903Z,2.97
2023-03-14T07:09:35.556Z,3.00
2023-03-14T07:12:04.149Z,2.70
2023-03-14T07:14:31.763Z,3.08
2023-03-14T07:16:59.236Z,2.60
2023-03-14T07:19:28.104Z,2.55
2023-03-14T07:21:55.594Z,3.60
2023-03-14T07:24:23.282Z,2.95
2023-03-14T07:26:50.721Z,2.40
2023-03-14T07:29:18.189Z,2.55
2023-03-14T07:31:45.669Z,2.75
2023-03-14T07:34:13.101Z,2.38
2023-03-14T07:36:42.237Z,2.78
2023-03-14T07:39:10.084Z,2.28
2023-03-14T07:41:37.546Z,2.67
2023-03-14T07:44:05.011Z,2.38
2023-03-14T07:46:32.529Z,2.67
2023-03-14T07:49:00.047Z,2.63
2023-03-14T07:51:27.499Z,3.25
2023-03-14T07:53:56.301Z,3.08
2023-03-14T07:56:23.865Z,3.88
2023-03-14T07:58:51.361Z,4.22
2023-03-14T08:01:18.809Z,4.68
2023-03-14T08:03:46.312Z,4.63
2023-03-14T08:06:13.802Z,3.97
2023-03-14T08:08:41.344Z,3.65
2023-03-14T08:11:10.592Z,3.88
2023-03-14T08:13:38.544Z,3.88
2023-03-14T08:16:06.922Z,3.67
2023-03-14T08:18:34.492Z,3.15
2023-03-14T08:21:02.066Z,3.78
2023-03-14T08:23:29.542Z,3.50
2023-03-14T08:25:57.009Z,3.20
2023-03-14T08:28:31.226Z,2.45
2023-03-14T08:30:59.333Z,2.45
2023-03-14T08:33:27.517Z,2.20
2023-03-14T08:35:55.728Z,2.53
2023-03-14T08:38:23.450Z,2.05
2023-03-14T08:40:51.212Z,1.70
2023-03-14T08:43:18.687Z,1.95
2023-03-14T08:45:47.506Z,1.90
2023-03-14T08:48:14.968Z,1.85
2023-03-14T08:50:42.425Z,2.00
2023-03-14T08:53:09.966Z,2.03
2023-03-14T08:55:37.686Z,1.95
2023-03-14T08:58:05.169Z,2.15
2023-03-14T09:00:32.642Z,2.00
2023-03-14T09:03:01.484Z,2.17
2023-03-14T09:05:29.018Z,1.88
2023-03-14T09:07:56.487Z,2.40
2023-03-14T09:10:23.949Z,1.90
2023-03-14T09:12:51.823Z,2.00
2023-03-14T09:15:19.351Z,2.13
2023-03-14T09:17:46.824Z,1.80
2023-03-14T09:20:15.863Z,2.97
2023-03-14T09:22:43.352Z,1.90
2023-03-14T09:25:11.588Z,2.63
2023-03-14T09:27:39.078Z,2.28
2023-03-14T09:30:07.536Z,1.98
2023-03-14T09:32:35.075Z,2.00
2023-03-14T09:35:02.812Z,2.22
2023-03-14T09:37:31.819Z,1.80
2023-03-14T09:39:59.295Z,1.85
2023-03-14T09:42:29.511Z,2.20
2023-03-14T09:44:59.286Z,2.03
2023-03-14T09:47:28.543Z,1.75
2023-03-14T09:49:56.047Z,1.70
2023-03-14T09:52:26.924Z,1.88
2023-03-14T09:54:59.066Z,1.73
2023-03-14T09:57:27.923Z,1.58
2023-03-14T09:59:59.849Z,1.83
2023-03-14T10:02:33.714Z,1.70
2023-03-14T10:05:06.729Z,2.00
2023-03-14T10:07:37.546Z,1.80
2023-03-14T10:10:12.420Z,2.20
2023-03-14T10:12:40.781Z,1.83
2023-03-14T10:15:10.870Z,1.90
2023-03-14T10:17:44.083Z,1.70
2023-03-14T10:20:34.015Z,1.70
2023-03-14T10:23:04.196Z,1.70
2023-03-14T10:25:34.610Z,1.70
2023-03-14T10:28:02.601Z,1.70
2023-03-14T10:30:45.093Z,3.08
2023-03-14T10:33:21.383Z,1.52
2023-03-14T10:35:54.016Z,2.15
2023-03-14T10:38:21.574Z,2.08
2023-03-14T10:40:54.036Z,1.77
2023-03-14T10:43:27.710Z,1.63
2023-03-14T10:45:58.817Z,2.08
2023-03-14T10:48:32.774Z,2.17
2023-03-14T10:51:06.144Z,1.45
2023-03-14T10:53:43.634Z,1.42
2023-03-14T10:56:15.796Z,1.60
2023-03-14T10:58:45.112Z,1.60
2023-03-14T11:01:29.496Z,1.33
2023-03-14T11:04:01.221Z,1.60
2023-03-14T11:06:38.313Z,2.05
2023-03-14T11:09:15.806Z,1.30
2023-03-14T11:11:48.591Z,2.83
2023-03-14T11:14:26.666Z,1.77
2023-03-14T11:16:58.208Z,1.73
2023-03-14T11:19:37.641Z,1.55
2023-03-14T11:22:15.397Z,1.88
2023-03-14T11:24:54.016Z,1.80
2023-03-14T11:27:25.188Z,1.92
2023-03-14T11:29:57.543Z,1.70
2023-03-14T11:32:38.027Z,1.90
2023-03-14T11:35:16.795Z,1.63
2023-03-14T11:37:53.243Z,3.05
2023-03-14T11:40:22.726Z,1.90
2023-03-14T11:42:56.895Z,1.75
2023-03-14T11:45:31.145Z,1.90
2023-03-14T11:48:15.656Z,3.78
2023-03-14T11:50:45.265Z,1.75
2023-03-14T11:53:17.415Z,3.58
2023-03-14T11:55:46.796Z,1.50
2023-03-14T11:58:20.108Z,1.88
2023-03-14T12:00:51.132Z,1.90
2023-03-14T12:03:26.079Z,2.05
2023-03-14T12:06:03.150Z,2.20
2023-03-14T12:08:40.477Z,1.67
2023-03-14T12:11:14.211Z,1.90
2023-03-14T12:13:50.261Z,1.90
2023-03-14T12:16:41.676Z,1.77
2023-03-14T12:19:34.166Z,1.80
2023-03-14T12:22:09.756Z,2.08
2023-03-14T12:24:40.280Z,3.50
2023-03-14T12:27:15.637Z,3.33
2023-03-14T12:30:04.665Z,1.95
2023-03-14T12:32:33.233Z,2.65
2023-03-14T12:35:29.353Z,1.90
2023-03-14T12:38:00.954Z,2.72
2023-03-14T12:40:33.570Z,3.47
2023-03-14T12:43:02.781Z,3.45
2023-03-14T12:45:32.463Z,2.42
2023-03-14T12:48:16.871Z,3.00
2023-03-14T12:50:46.271Z,4.35
2023-03-14T12:53:41.191Z,4.00
2023-03-14T12:56:22.410Z,3.40
2023-03-14T12:59:01.359Z,3.92
2023-03-14T13:01:29.196Z,2.72
2023-03-14T13:03:58.731Z,3.75
2023-03-14T13:06:57.706Z,4.10
2023-03-14T13:09:53.925Z,6.38
2023-03-14T13:12:28.689Z,3.88
2023-03-14T13:14:56.237Z,3.35
2023-03-14T13:17:35.822Z,3.10
2023-03-14T13:20:14.373Z,3.20
2023-03-14T13:22:48.702Z,3.53
2023-03-14T13:25:19.294Z,2.30
2023-03-14T13:27:46.879Z,2.38
2023-03-14T13:30:18.462Z,2.88
2023-03-14T13:32:48.829Z,3.50
2023-03-14T13:35:18.881Z,2.75
2023-03-14T13:37:46.602Z,3.38
2023-03-14T13:40:28.219Z,3.08
2023-03-14T13:43:06.058Z,4.35
2023-03-14T13:45:33.560Z,4.90
2023-03-14T13:48:01.062Z,4.03
2023-03-14T13:50:28.644Z,3.20
2023-03-14T13:53:00.312Z,1.90
2023-03-14T13:55:31.694Z,5.47
2023-03-14T13:57:59.150Z,14.68
2023-03-14T14:00:28.884Z,6.38
2023-03-14T14:02:57.452Z,3.97
2023-03-14T14:05:28.089Z,4.32
2023-03-14T14:07:56.282Z,3.95
2023-03-14T14:10:24.429Z,3.80
2023-03-14T14:12:59.242Z,4.88
2023-03-14T14:15:30.360Z,7.50
2023-03-14T14:18:00.445Z,8.82
2023-03-14T14:20:36.006Z,15.63
2023-03-14T14:23:05.925Z,7.93
2023-03-14T14:25:34.199Z,5.95
2023-03-14T14:28:17.051Z,8.18
2023-03-14T14:30:44.807Z,6.50
2023-03-14T14:33:19.723Z,8.63
2023-03-14T14:35:55.512Z,8.25
2023-03-14T14:38:23.422Z,10.02
2023-03-14T14:40:53.376Z,8.77
2023-03-14T14:43:25.619Z,7.75
2023-03-14T14:45:55.552Z,6.32
2023-03-14T14:48:25.243Z,6.60
2023-03-14T14:50:59.512Z,6.38
2023-03-14T14:53:31.607Z,7.50
2023-03-14T14:56:01.459Z,8.02
2023-03-14T14:58:35.362Z,7.70
2023-03-14T15:01:07.165Z,5.25
2023-03-14T15:03:36.659Z,7.20
2023-03-14T15:06:05.044Z,6.27
2023-03-14T15:08:32.850Z,7.45
2023-03-14T15:11:01.231Z,7.47
2023-03-14T15:13:30.066Z,6.82
2023-03-14T15:15:57.814Z,19.25
2023-03-14T15:18:30.406Z,11.27
2023-03-14T15:20:58.398Z,42.42
2023-03-14T15:23:25.965Z,19.10
2023-03-14T15:25:56.188Z,34.08
2023-03-14T15:28:26.506Z,120.80
2023-03-14T15:30:57.544Z,20.58
2023-03-14T15:33:25.738Z,27.60
2023-03-14T15:35:53.864Z,37.80
2023-03-14T15:38:23.888Z,61.50
2023-03-14T15:40:52.270Z,54.50
2023-03-14T15:43:20.065Z,83.27
2023-03-14T15:45:47.823Z,35.00
2023-03-14T15:48:19.057Z,44.67
2023-03-14T15:50:47.126Z,39.83
2023-03-14T15:53:14.953Z,4.10
2023-03-14T15:55:42.436Z,76.20
2023-03-14T15:58:17.955Z,8.40
2023-03-14T16:00:47.257Z,10.93
2023-03-14T16:03:14.854Z,11.97
2023-03-14T16:05:43.967Z,7.77
2023-03-14T16:08:11.465Z,5.60
2023-03-14T16:10:39.584Z,14.63
2023-03-14T16:13:07.160Z,22.23
2023-03-14T16:15:34.720Z,95.07
2023-03-14T16:18:15.305Z,16.23
2023-03-14T16:20:55.215Z,11.03
2023-03-14T16:23:22.769Z,20.23
2023-03-14T16:25:50.248Z,16.20
2023-03-14T16:28:17.771Z,33.03
2023-03-14T16:30:45.258Z,37.97
2023-03-14T16:33:13.218Z,39.40
2023-03-14T16:35:40.800Z,37.70
2023-03-14T16:38:09.675Z,41.50
2023-03-14T16:40:37.148Z,35.97
2023-03-14T16:43:15.770Z,33.33
2023-03-14T16:45:44.118Z,27.90
2023-03-14T16:48:11.612Z,31.83
2023-03-14T16:50:41.082Z,32.93
2023-03-14T16:53:11.795Z,27.93
2023-03-14T16:55:42.410Z,29.83
2023-03-14T16:58:10.122Z,24.20
2023-03-14T17:00:37.679Z,25.97
2023-03-14T17:03:06.102Z,14.83
2023-03-14T17:05:33.639Z,17.67
2023-03-14T17:08:01.180Z,15.20
2023-03-14T17:10:30.072Z,18.30
2023-03-14T17:12:57.534Z,9.83
2023-03-14T17:15:25.012Z,6.17
2023-03-14T17:17:52.491Z,2.80
2023-03-14T17:20:20.175Z,8.67
2023-03-14T17:22:47.683Z,19.63
2023-03-14T17:25:15.354Z,10.67
2023-03-14T17:27:46.087Z,7.97
2023-03-14T17:30:15.028Z,2.77
2023-03-14T17:32:42.597Z,6.17
2023-03-14T17:35:10.136Z,9.17
2023-03-14T17:37:37.611Z,3.03
2023-03-14T17:40:06.108Z,3.47
2023-03-14T17:42:33.710Z,5.67
2023-03-14T17:45:02.743Z,6.83
2023-03-14T17:47:30.237Z,2.17
2023-03-14T17:49:57.763Z,1.87
2023-03-14T17:52:25.261Z,1.90
2023-03-14T17:54:52.764Z,1.70
2023-03-14T17:57:20.264Z,2.87
2023-03-14T17:59:47.772Z,1.90
2023-03-14T18:02:17.054Z,2.60
2023-03-14T18:04:44.751Z,1.93
2023-03-14T18:07:13.557Z,2.50
2023-03-14T18:09:41.308Z,3.63
2023-03-14T18:12:09.487Z,2.77
2023-03-14T18:14:37.705Z,3.90
2023-03-14T18:17:05.599Z,2.87
2023-03-14T18:19:34.455Z,2.80
2023-03-14T18:22:01.950Z,2.70
2023-03-14T18:24:29.505Z,2.97
2023-03-14T18:26:57.116Z,2.27
2023-03-14T18:29:24.684Z,2.47
2023-03-14T18:31:52.346Z,3.07
2023-03-14T18:34:20.333Z,3.57
2023-03-14T18:36:49.276Z,2.53
2023-03-14T18:39:16.797Z,3.30
2023-03-14T18:41:44.308Z,3.97
2023-03-14T18:44:12.361Z,5.60
2023-03-14T18:46:39.959Z,2.43
2023-03-14T18:49:07.741Z,3.40
2023-03-14T18:51:35.422Z,3.90
2023-03-14T18:54:10.035Z,3.27
2023-03-14T18:56:39.137Z,2.23
2023-03-14T18:59:06.910Z,5.60
2023-03-14T19:01:34.610Z,3.03
2023-03-14T19:04:02.958Z,3.10
2023-03-14T19:06:32.773Z,3.67
2023-03-14T19:09:00.631Z,1.77
2023-03-14T19:11:29.572Z,4.60
2023-03-14T19:13:57.160Z,3.37
2023-03-14T19:16:25.382Z,2.60
2023-03-14T19:18:55.308Z,2.63
2023-03-14T19:21:29.159Z,2.67
2023-03-14T19:23:57.221Z,2.00
2023-03-14T19:26:25.483Z,3.00
2023-03-14T19:28:54.323Z,5.17
2023-03-14T19:31:21.905Z,2.33
2023-03-14T19:33:50.218Z,2.87
2023-03-14T19:36:23.425Z,4.67
2023-03-14T19:38:52.198Z,4.70
2023-03-14T19:41:20.907Z,2.33
2023-03-14T19:43:48.461Z,4.67
2023-03-14T19:46:17.565Z,3.47
2023-03-14T19:48:45.798Z,2.77
2023-03-14T19:51:13.919Z,8.13
2023-03-14T19:53:42.067Z,4.50
2023-03-14T19:56:10.083Z,4.60
2023-03-14T19:58:39.589Z,5.80
2023-03-14T20:01:08.299Z,3.67
2023-03-14T20:03:37.535Z,5.13
2023-03-14T20:06:05.976Z,4.00
2023-03-14T20:08:33.500Z,3.43
2023-03-14T20:11:01.173Z,4.13
2023-03-14T20:13:28.719Z,4.17
2023-03-14T20:15:56.259Z,5.97
2023-03-14T20:18:24.112Z,5.40
2023-03-14T20:20:53.224Z,4.23
2023-03-14T20:23:20.964Z,3.67
2023-03-14T20:25:54.498Z,5.13
2023-03-14T20:28:22.068Z,6.70
2023-03-14T20:30:50.019Z,9.50
2023-03-14T20:33:18.481Z,24.67
2023-03-14T20:35:46.338Z,12.30
2023-03-14T20:38:15.238Z,42.50
2023-03-14T20:40:46.343Z,34.97
2023-03-14T20:43:13.830Z,45.80
2023-03-14T20:45:41.313Z,52.53
2023-03-14T20:48:08.875Z,47.33
2023-03-14T20:50:36.519Z,45.27
2023-03-14T20:53:04.085Z,46.40
2023-03-14T20:55:32.981Z,38.47
2023-03-14T20:58:01.418Z,35.43
2023-03-14T21:00:28.910Z,40.73
2023-03-14T21:02:56.443Z,44.70
2023-03-14T21:05:24.899Z,48.60
2023-03-14T21:07:53.087Z,45.27
2023-03-14T21:10:21.229Z,46.93
2023-03-14T21:12:50.035Z,46.50
2023-03-14T21:15:17.568Z,44.87
2023-03-14T21:17:45.252Z,45.10
2023-03-14T21:20:13.937Z,48.83
2023-03-14T21:22:41.752Z,49.47
2023-03-14T21:25:09.588Z,48.77
2023-03-14T21:27:39.274Z,45.43
2023-03-14T21:30:10.395Z,49.00
2023-03-14T21:32:37.985Z,50.50
2023-03-14T21:35:05.847Z,51.10
2023-03-14T21:37:33.395Z,50.97
2023-03-14T21:40:00.913Z,50.10
2023-03-14T21:42:28.377Z,49.37
2023-03-14T21:44:55.842Z,47.93
2023-03-14T21:47:28.952Z,48.93
2023-03-14T21:49:56.465Z,52.17
2023-03-14T21:52:23.962Z,50.67
2023-03-14T21:54:51.630Z,38.63
2023-03-14T21:57:19.190Z,27.47
2023-03-14T21:59:47.516Z,45.13
2023-03-14T22:02:17.266Z,46.53
2023-03-14T22:04:46.353Z,44.93
2023-03-14T22:07:18.335Z,46.20
2023-03-14T22:09:46.835Z,46.63
2023-03-14T22:12:18.853Z,47.27
2023-03-14T22:14:47.240Z,38.20
2023-03-14T22:17:16.794Z,46.33
2023-03-14T22:19:45.923Z,46.47
2023-03-14T22:22:13.422Z,46.43
2023-03-14T22:24:40.972Z,39.90
2023-03-14T22:27:08.442Z,42.30
2023-03-14T22:29:37.557Z,48.23
2023-03-14T22:32:05.147Z,50.23
2023-03-14T22:34:32.910Z,45.87
2023-03-14T22:37:03.914Z,49.27
2023-03-14T22:39:32.510Z,52.60
2023-03-14T22:42:01.280Z,51.40
2023-03-14T22:44:32.460Z,60.37
2023-03-14T22:47:01.019Z,53.07
2023-03-14T22:49:28.913Z,33.27
2023-03-14T22:51:56.490Z,9.27
2023-03-14T22:54:25.343Z,3.93
2023-03-14T22:56:52.833Z,2.67
2023-03-14T22:59:20.595Z,3.83
2023-03-14T23:01:48.115Z,6.00
2023-03-14T23:04:15.618Z,7.43
2023-03-14T23:06:43.158Z,19.23
2023-03-14T23:09:11.920Z,26.37
2023-03-14T23:11:41.647Z,7.13
2023-03-14T23:14:09.726Z,3.73
2023-03-14T23:16:40.599Z,3.50
2023-03-14T23:19:09.659Z,4.93
2023-03-14T23:21:37.547Z,5.77
2023-03-14T23:24:06.063Z,13.30
2023-03-14T23:26:35.382Z,20.43
2023-03-14T23:29:05.664Z,9.07
2023-03-14T23:31:33.368Z,13.40
2023-03-14T23:34:01.912Z,9.17
2023-03-14T23:36:29.543Z,7.93
2023-03-14T23:38:57.389Z,20.40
2023-03-14T23:41:24.890Z,19.37
2023-03-14T23:43:52.616Z,25.40
2023-03-14T23:46:21.753Z,27.97
2023-03-14T23:48:49.325Z,29.10
2023-03-14T23:51:17.601Z,18.77
2023-03-14T23:53:45.456Z,14.47
2023-03-14T23:56:14.676Z,12.57
2023-03-14T23:58:42.741Z,15.67
